createdAt,value
2019-03-05T07:34:10.024Z,47.10
2019-03-05T07:39:09.842Z,47.48
2019-03-05T07:44:09.870Z,48.08
2019-03-05T07:49:10.145Z,48.29
2019-03-05T07:54:09.944Z,48.49
2019-03-05T07:59:10.038Z,48.87
2019-03-05T08:04:10.007Z,48.81
2019-03-05T08:09:09.860Z,48.85
2019-03-05T08:14:09.879Z,48.94
2019-03-05T08:19:09.909Z,48.70
2019-03-05T08:24:10.035Z,49.37
2019-03-05T08:29:09.986Z,48.64
2019-03-05T08:34:10.035Z,49.13
2019-03-05T08:39:10.063Z,48.94
2019-03-05T08:44:10.073Z,49.06
2019-03-05T08:49:09.940Z,48.93
2019-03-05T08:54:09.935Z,49.53
2019-03-05T08:59:10.215Z,49.12
2019-03-05T09:04:10.021Z,49.34
2019-03-05T09:09:09.947Z,49.32
2019-03-05T09:14:10.093Z,49.57
2019-03-05T09:19:10.119Z,49.76
2019-03-05T09:24:09.926Z,50.34
2019-03-05T09:29:10.025Z,49.91
2019-03-05T09:34:09.996Z,49.65
2019-03-05T09:39:09.833Z,50.02
2019-03-05T09:44:09.893Z,50.28
2019-03-05T09:49:10.031Z,50.20
2019-03-05T09:54:09.862Z,50.22
2019-03-05T09:59:09.918Z,50.10
2019-03-05T10:04:09.927Z,49.96
2019-03-05T10:09:09.969Z,49.87
2019-03-05T10:14:09.991Z,49.59
2019-03-05T10:19:10.000Z,50.29
2019-03-05T10:24:10.710Z,50.26
2019-03-05T10:29:09.909Z,50.21
2019-03-05T10:34:09.915Z,49.59
2019-03-05T10:39:09.964Z,50.10
2019-03-05T10:44:09.984Z,49.36
2019-03-05T10:49:10.036Z,49.56
2019-03-05T10:54:10.516Z,49.89
2019-03-05T10:59:09.896Z,49.97
2019-03-05T11:04:10.151Z,49.25
2019-03-05T11:09:09.959Z,49.73
2019-03-05T11:14:09.991Z,49.35
2019-03-05T11:19:10.045Z,49.84
2019-03-05T11:24:09.848Z,50.07
2019-03-05T11:29:10.070Z,49.51
2019-03-05T11:34:09.932Z,49.70
2019-03-05T11:39:09.974Z,49.90
2019-03-05T11:44:10.010Z,50.17
2019-03-05T11:49:10.043Z,49.70
2019-03-05T11:54:09.862Z,49.57
2019-03-05T11:59:10.077Z,49.50
2019-03-05T12:04:09.935Z,49.24
2019-03-05T12:09:09.963Z,49.29
2019-03-05T12:14:09.998Z,49.80
2019-03-05T12:19:10.061Z,49.69
2019-03-05T12:24:09.840Z,49.57
2019-03-05T12:29:09.914Z,49.98
2019-03-05T12:34:09.932Z,50.55
2019-03-05T12:39:09.970Z,50.39
2019-03-05T12:44:10.005Z,50.76
2019-03-05T12:49:09.828Z,51.02
2019-03-05T12:54:09.857Z,51.21
2019-03-05T12:59:10.069Z,50.94
2019-03-05T13:04:09.892Z,51.16
2019-03-05T13:09:13.575Z,51.63
2019-03-05T13:14:12.305Z,51.52
2019-03-05T13:19:10.994Z,51.48
2019-03-05T13:24:13.209Z,51.15
2019-03-05T13:29:09.878Z,51.23
2019-03-05T13:34:09.939Z,50.65
2019-03-05T13:39:09.851Z,50.74
2019-03-05T13:44:09.923Z,51.06
2019-03-05T13:49:09.913Z,51.09
2019-03-05T13:54:10.748Z,51.16
2019-03-05T13:59:09.993Z,51.32
2019-03-05T14:04:09.807Z,51.07
2019-03-05T14:09:10.205Z,50.82
2019-03-05T14:14:09.892Z,50.87
2019-03-05T14:19:09.929Z,50.60
2019-03-05T14:24:09.954Z,50.43
2019-03-05T14:29:10.206Z,50.99
2019-03-05T14:34:09.819Z,51.15
2019-03-05T14:39:09.973Z,51.02
2019-03-05T14:44:09.969Z,50.65
2019-03-05T14:49:09.835Z,50.69
2019-03-05T14:54:10.211Z,50.93
2019-03-05T14:59:09.883Z,50.70
2019-03-05T15:04:09.980Z,51.12
2019-03-05T15:09:09.966Z,49.97
2019-03-05T15:14:10.026Z,50.61
2019-03-05T15:19:20.973Z,50.77
2019-03-05T15:24:09.868Z,50.68
2019-03-05T15:29:09.990Z,50.86
2019-03-05T15:34:09.951Z,50.68
2019-03-05T15:39:10.160Z,51.06
2019-03-05T15:44:10.221Z,50.69
2019-03-05T15:49:10.221Z,50.38
2019-03-05T15:54:10.421Z,50.72
2019-03-05T15:59:10.036Z,50.91
2019-03-05T16:04:10.129Z,50.92
2019-03-05T16:09:09.945Z,50.89
2019-03-05T16:14:09.791Z,51.00
2019-03-05T16:19:12.462Z,50.33
2019-03-05T16:24:10.077Z,50.80
2019-03-05T16:29:09.908Z,50.88
2019-03-05T16:34:13.130Z,50.72
2019-03-05T16:39:10.584Z,50.88
2019-03-05T16:44:10.018Z,50.76
2019-03-05T16:49:09.800Z,51.08
2019-03-05T16:54:09.896Z,51.37
2019-03-05T16:59:09.894Z,51.44
2019-03-05T17:04:09.947Z,51.05
2019-03-05T17:09:09.957Z,50.99
2019-03-05T17:14:09.910Z,51.39
2019-03-05T17:19:09.935Z,51.40
2019-03-05T17:24:09.992Z,50.79
2019-03-05T17:29:10.134Z,50.91
2019-03-05T17:34:10.025Z,51.53
2019-03-05T17:39:09.878Z,51.42
2019-03-05T17:44:10.101Z,50.99
2019-03-05T17:49:09.934Z,51.43
2019-03-05T17:54:09.981Z,50.88
2019-03-05T17:59:10.019Z,50.75
2019-03-05T18:04:09.835Z,51.26
2019-03-05T18:09:09.854Z,50.76
2019-03-05T18:14:09.894Z,51.12
2019-03-05T18:19:09.949Z,50.96
2019-03-05T18:24:09.846Z,50.87
2019-03-05T18:29:09.972Z,51.39
2019-03-05T18:34:10.033Z,51.14
2019-03-05T18:39:09.860Z,50.87
2019-03-05T18:44:09.908Z,50.67
2019-03-05T18:49:09.928Z,51.12
2019-03-05T18:54:09.977Z,51.09
2019-03-05T18:59:10.377Z,51.18
2019-03-05T19:04:10.053Z,51.32
2019-03-05T19:09:09.797Z,51.16
2019-03-05T19:14:10.115Z,50.77
2019-03-05T19:19:09.937Z,51.30
2019-03-05T19:24:09.974Z,51.50
2019-03-05T19:29:09.816Z,51.32
2019-03-05T19:37:21.824Z,47.55
2019-03-05T19:47:27.087Z,45.58
2019-03-05T19:58:00.486Z,44.01
2019-03-05T20:03:01.140Z,43.93
2019-03-05T20:08:01.560Z,43.57
2019-03-05T20:13:02.555Z,42.29
2019-03-05T20:18:03.282Z,43.15
2019-03-05T20:23:04.974Z,43.08
2019-03-05T20:34:14.679Z,42.43
2019-03-05T21:06:00.519Z,42.47
2019-03-05T21:15:10.194Z,46.27
2019-03-05T21:20:10.808Z,47.06
2019-03-05T21:25:11.512Z,48.44
2019-03-05T21:30:12.198Z,49.16
2019-03-05T21:35:12.788Z,49.65
2019-03-05T21:40:13.459Z,50.08
2019-03-05T21:45:13.912Z,50.30
2019-03-05T21:50:14.553Z,50.83
2019-03-05T21:55:14.999Z,50.74
2019-03-05T22:00:15.455Z,50.81
2019-03-05T22:05:16.353Z,51.12
2019-03-05T22:10:17.128Z,51.34
2019-03-05T22:15:17.795Z,51.29
2019-03-05T22:20:18.246Z,51.90
2019-03-05T22:25:18.942Z,51.90
2019-03-05T22:30:19.533Z,51.64
2019-03-05T22:35:19.969Z,51.94
2019-03-05T22:40:20.428Z,51.45
2019-03-05T22:45:21.072Z,51.44
2019-03-05T22:50:21.971Z,51.71
2019-03-05T22:55:22.577Z,51.71
2019-03-05T23:00:23.021Z,51.60
2019-03-05T23:05:23.657Z,51.66
2019-03-05T23:10:24.336Z,52.18
2019-03-05T23:15:24.765Z,51.82
2019-03-05T23:20:25.404Z,52.29
2019-03-05T23:25:26.104Z,52.12
2019-03-05T23:30:26.694Z,51.90
2019-03-05T23:35:27.538Z,51.99
2019-03-05T23:40:27.998Z,52.04
2019-03-05T23:45:28.451Z,52.03
2019-03-05T23:50:29.146Z,52.36
2019-03-05T23:55:29.943Z,52.19
